Accueil
METAR-TAF:

METAR-TAF

Aéroports :

Srinagar, Inde

latitude: 33-59-14N, longitude: 074-46-27E, altitude: 1655 m

METAR: absent

Heure: 22:49 (17:19 UTC)

Prévision

Le bulletin a été fait il y a 7 heures et 49 minutes, à 09:30 UTC
Prévision valable du 21 à 12 UTC au 21 à 24 UTC
Vent 5 kt de ouest/nord-ouest
Visibilité: 6000 m
Quelques nuages à une hauteur de 2500 ft
Nuages épars à une hauteur de 9000 ft
Temporairement
du 21 à 13 UTC au 21 à 16 UTC
Quelques nuages à une hauteur de 2500 ft
Quelques nuages à une hauteur de 2500 ft, Cumulonimbus.
Nuages fragmentés à une hauteur de 9000 ft
Temporairement
du 21 à 23 UTC au 21 à 24 UTC
Nuages épars à une hauteur de 2500 ft
Quelques nuages à une hauteur de 2500 ft, Cumulonimbus.
Nuages fragmentés à une hauteur de 9000 ft

TAF: VISR 210930Z 2112/2124 29005KT 6000 FEW025 SCT090 TEMPO 2113/2116 FEW025 FEW025CB BKN090 TEMPO 2123/2124 SCT025 FEW025CB BKN090

Observations et prévisions météorologiques de plus de 4000 aéroports (messages METAR et TAF).

Les stations disponibles sont représentées par des disques jaunes et rouges sur la carte.

Passer la souris dessus pour voir le nom de la station.

Cliquer dessus pour voir les observations et prévisions météorologiques.

Pour changer de carte: cliquez sur les boutons verts avec une croix noire pour zoomer, sur le bouton vert avec un tiret pour effectuer un zoom arrière, ou sur les flèches vertes pour les cartes adjacentes.


METAR-TAF: